Big Bear Lake, CA

1:21 PM PST on January 30, 2015 (GMT -0800)
Big Bear Lake | Change Station
CLOSE
Current Station
Personal Weather Station
Location: Big Bear Lake, CA
Elevation: 6923 ft
Nearby Weather Stations

Elev 6923 ft 34.24 °N, 116.90 °W | Updated 7 minutes ago

Light Snow
Light Snow
37.1 °F
Feels Like 37 °F
N
0.0
Wind Variable Wind from East

Today
High -- | Low -- °F
--% Chance of Precip.
Yesterday
High -- | Low -- °F
Precip. -- in
6:46 AM 5:15 PM
Waxing Gibbous, 85% visible
Pressure 29.94 in
Visibility 2.5 miles
Clouds Scattered Clouds 300 ft
Overcast 1000 ft
Windchill 37 °F
Dew Point 36 °F
Humidity 95%
Rainfall 0.22 in
Snow Depth Not available.
UV 2 out of 12
Pollen 6.90 out of 12
Air Quality Not available.
Flu Activity Not available.
METAR KL35 302055Z AUTO 00000KT 2 1/2SM -SN SCT003 OVC010 00/00 A2994 RMK AO2 P0003

More Conditions Fewer Conditions

Pressure 29.94 in
Visibility 2.5 miles
Clouds Scattered Clouds 300 ft
Overcast 1000 ft
Windchill 37 °F
Dew Point 36 °F
Humidity 95%
Rainfall 0.22 in
Snow Depth Not available.
UV 2 out of 12
Pollen 6.90 out of 12
Air Quality Not available.
Flu Activity Not available.
METAR KL35 302055Z AUTO 00000KT 2 1/2SM -SN SCT003 OVC010 00/00 A2994 RMK AO2 P0003

More Conditions Fewer Conditions

10-Day Weather Forecast

Almanac

Astronomy

Jan. 30, 2015 Rise Set
Actual Time
Civil Twilight
Nautical Twilight
Astronomical Twilight
Moon
Length of Visible Light
Length of Day
Tomorrow will be .
, % of the Moon is Illuminated

Today's Extremes

State Highs State Lows

Community

WunderPhotos

Upload Photos

1,791,895 photos uploaded!

WunderBlogs® & News

Nearby

Air Quality

  Air Quality AQ Index Pollutant
Not available.

Snow Depth

Station Depth Elevation

Earthquake Activity

City Distance Mag. Time & Date
Minimum magnitude displayed is 2.5.

Coastal Water Temperatures

Place Temperature

Nearby Weather Stations